Time,TemperatureF,DewpointF,PressureIn,WindDirection,WindDirectionDegrees,WindSpeedMPH,WindSpeedGustMPH,Humidity,HourlyPrecipIn,Conditions,Clouds,dailyrainin,SoftwareType,DateUTC
2013-02-19 00:08:00,36.0,20.0,29.86,SE,144,0.0,-999.0,53,-99.99,,,0.00,weatherlink.com 1.10,2013-02-19 05:08:00,
2013-02-19 00:23:00,36.3,20.0,29.85,SE,144,0.0,-999.0,53,-99.99,,,0.00,weatherlink.com 1.10,2013-02-19 05:23:00,
2013-02-19 00:38:00,36.6,21.0,29.84,SSE,163,0.0,-999.0,53,-99.99,,,0.00,weatherlink.com 1.10,2013-02-19 05:38:00,
2013-02-19 00:53:00,36.8,21.0,29.84,SSE,163,0.0,-999.0,54,-99.99,,,0.00,weatherlink.com 1.10,2013-02-19 05:53:00,
2013-02-19 01:08:00,37.0,22.0,29.83,SSE,163,0.0,-999.0,55,-99.99,,,0.00,weatherlink.com 1.10,2013-02-19 06:08:00,
2013-02-19 01:23:00,37.6,23.0,29.82,SSE,163,0.0,-999.0,56,-99.99,,,0.00,weatherlink.com 1.10,2013-02-19 06:23:00,
2013-02-19 01:39:00,38.0,23.0,29.82,SSE,163,0.0,-999.0,56,-99.99,,,0.00,weatherlink.com 1.10,2013-02-19 06:39:00,
2013-02-19 01:53:00,38.3,24.0,29.81,SSE,163,0.0,-999.0,57,-99.99,,,0.00,weatherlink.com 1.10,2013-02-19 06:53:00,
2013-02-19 02:08:00,38.6,25.0,29.81,SSE,163,0.0,-999.0,58,-99.99,,,0.00,weatherlink.com 1.10,2013-02-19 07:08:00,
2013-02-19 02:23:00,39.2,25.0,29.80,SSE,163,0.0,-999.0,57,-99.99,,,0.00,weatherlink.com 1.10,2013-02-19 07:23:00,
2013-02-19 02:38:00,39.2,25.0,29.79,SSE,163,0.0,-999.0,57,-99.99,,,0.00,weatherlink.com 1.10,2013-02-19 07:38:00,
2013-02-19 02:54:00,39.1,25.0,29.78,SSE,163,0.0,-999.0,58,-99.99,,,0.00,weatherlink.com 1.10,2013-02-19 07:54:00,
2013-02-19 03:08:00,38.9,25.0,29.77,SSE,163,0.0,-999.0,58,-99.99,,,0.00,weatherlink.com 1.10,2013-02-19 08:08:00,
2013-02-19 03:23:00,38.6,25.0,29.75,SSE,163,0.0,-999.0,58,-99.99,,,0.00,weatherlink.com 1.10,2013-02-19 08:23:00,
2013-02-19 03:39:00,38.3,25.0,29.74,SSE,163,0.0,-999.0,58,-99.99,,,0.00,weatherlink.com 1.10,2013-02-19 08:39:00,
2013-02-19 03:54:00,37.8,24.0,29.73,SSE,163,0.0,-999.0,59,-99.99,,,0.00,weatherlink.com 1.10,2013-02-19 08:54:00,
2013-02-19 04:08:00,37.5,24.0,29.73,SSE,163,0.0,-999.0,58,-99.99,,,0.00,weatherlink.com 1.10,2013-02-19 09:08:00,
2013-02-19 04:23:00,37.9,23.0,29.72,SSE,163,0.0,-999.0,56,-99.99,,,0.00,weatherlink.com 1.10,2013-02-19 09:23:00,
2013-02-19 04:39:00,37.5,23.0,29.71,SSE,163,0.0,-999.0,56,-99.99,,,0.00,weatherlink.com 1.10,2013-02-19 09:39:00,
2013-02-19 04:53:00,37.0,23.0,29.71,SSE,163,0.0,-999.0,57,-99.99,,,0.00,weatherlink.com 1.10,2013-02-19 09:53:00,
2013-02-19 05:09:00,39.6,23.0,29.71,South,188,2.0,-999.0,51,-99.99,,,0.00,weatherlink.com 1.10,2013-02-19 10:09:00,
2013-02-19 05:23:00,40.2,22.0,29.70,South,180,0.0,-999.0,49,-99.99,,,0.00,weatherlink.com 1.10,2013-02-19 10:23:00,
2013-02-19 05:39:00,40.9,24.0,29.69,SSW,193,3.0,-999.0,51,-99.99,,,0.00,weatherlink.com 1.10,2013-02-19 10:39:00,
2013-02-19 05:53:00,41.8,29.0,29.68,SW,215,1.0,-999.0,62,-99.99,,,0.00,weatherlink.com 1.10,2013-02-19 10:53:00,
2013-02-19 06:09:00,40.3,32.0,29.68,South,186,2.0,-999.0,71,-99.99,,,0.01,weatherlink.com 1.10,2013-02-19 11:09:00,
2013-02-19 06:23:00,39.3,32.0,29.67,South,175,0.0,-999.0,75,-99.99,,,0.03,weatherlink.com 1.10,2013-02-19 11:23:00,
2013-02-19 06:38:00,38.5,32.0,29.67,SSW,213,0.0,-999.0,78,-99.99,,,0.05,weatherlink.com 1.10,2013-02-19 11:38:00,
2013-02-19 06:53:00,38.6,33.0,29.66,SW,217,1.0,-999.0,81,-99.99,,,0.08,weatherlink.com 1.10,2013-02-19 11:53:00,
2013-02-19 07:09:00,39.1,35.0,29.65,South,188,5.0,-999.0,84,-99.99,,,0.11,weatherlink.com 1.10,2013-02-19 12:09:00,
2013-02-19 07:24:00,39.2,35.0,29.65,South,178,4.0,-999.0,86,-99.99,,,0.14,weatherlink.com 1.10,2013-02-19 12:24:00,
2013-02-19 07:39:00,39.3,36.0,29.64,South,190,2.0,-999.0,87,-99.99,,,0.17,weatherlink.com 1.10,2013-02-19 12:39:00,
2013-02-19 07:53:00,39.5,36.0,29.64,South,174,2.0,-999.0,88,-99.99,,,0.18,weatherlink.com 1.10,2013-02-19 12:53:00,
2013-02-19 08:08:00,39.5,36.0,29.63,SSE,168,9.0,-999.0,87,-99.99,,,0.19,weatherlink.com 1.10,2013-02-19 13:08:00,
2013-02-19 08:23:00,39.3,36.0,29.63,SSW,211,5.0,-999.0,87,-99.99,,,0.21,weatherlink.com 1.10,2013-02-19 13:23:00,
2013-02-19 08:39:00,39.3,36.0,29.61,WSW,244,2.0,-999.0,87,-99.99,,,0.23,weatherlink.com 1.10,2013-02-19 13:39:00,
2013-02-19 08:53:00,39.3,36.0,29.61,South,174,2.0,-999.0,86,-99.99,,,0.23,weatherlink.com 1.10,2013-02-19 13:53:00,
2013-02-19 09:08:00,40.1,36.0,29.59,SSW,197,6.0,-999.0,84,-99.99,,,0.23,weatherlink.com 1.10,2013-02-19 14:08:00,
2013-02-19 09:23:00,40.2,35.0,29.60,SSW,202,6.0,-999.0,83,-99.99,,,0.23,weatherlink.com 1.10,2013-02-19 14:23:00,
2013-02-19 09:38:00,40.2,35.0,29.59,SSE,165,10.0,-999.0,83,-99.99,,,0.24,weatherlink.com 1.10,2013-02-19 14:38:00,
2013-02-19 09:53:00,40.3,36.0,29.58,South,190,5.0,-999.0,83,-99.99,,,0.25,weatherlink.com 1.10,2013-02-19 14:53:00,
2013-02-19 10:09:00,40.9,36.0,29.57,SSW,197,2.0,-999.0,82,-99.99,,,0.25,weatherlink.com 1.10,2013-02-19 15:09:00,
2013-02-19 10:24:00,41.1,36.0,29.57,SSE,167,6.0,-999.0,81,-99.99,,,0.25,weatherlink.com 1.10,2013-02-19 15:24:00,
2013-02-19 10:38:00,41.2,36.0,29.55,SSW,196,6.0,-999.0,80,-99.99,,,0.25,weatherlink.com 1.10,2013-02-19 15:38:00,
2013-02-19 10:53:00,41.8,35.0,29.55,South,177,11.0,-999.0,78,-99.99,,,0.25,weatherlink.com 1.10,2013-02-19 15:53:00,
2013-02-19 11:08:00,42.5,36.0,29.54,SSW,192,10.0,-999.0,77,-99.99,,,0.25,weatherlink.com 1.10,2013-02-19 16:08:00,
2013-02-19 11:23:00,42.6,35.0,29.54,WSW,258,14.0,-999.0,75,-99.99,,,0.25,weatherlink.com 1.10,2013-02-19 16:23:00,
2013-02-19 11:39:00,41.5,35.0,29.57,WSW,249,5.0,-999.0,77,-99.99,,,0.25,weatherlink.com 1.10,2013-02-19 16:39:00,
2013-02-19 11:53:00,36.8,32.0,29.59,West,272,3.0,-999.0,84,-99.99,,,0.25,weatherlink.com 1.10,2013-02-19 16:53:00,
2013-02-19 12:09:00,34.6,31.0,29.59,WSW,240,3.0,-999.0,88,-99.99,,,0.26,weatherlink.com 1.10,2013-02-19 17:09:00,
2013-02-19 12:24:00,34.0,31.0,29.59,WSW,252,0.0,-999.0,90,-99.99,,,0.27,weatherlink.com 1.10,2013-02-19 17:24:00,
2013-02-19 12:39:00,33.7,31.0,29.59,WSW,252,4.0,-999.0,90,-99.99,,,0.27,weatherlink.com 1.10,2013-02-19 17:39:00,
2013-02-19 12:54:00,33.5,31.0,29.58,WSW,250,9.0,-999.0,91,-99.99,,,0.27,weatherlink.com 1.10,2013-02-19 17:54:00,
2013-02-19 13:09:00,33.1,31.0,29.59,West,268,3.0,-999.0,91,-99.99,,,0.27,weatherlink.com 1.10,2013-02-19 18:09:00,
2013-02-19 13:24:00,32.1,30.0,29.60,WSW,254,5.0,-999.0,91,-99.99,,,0.28,weatherlink.com 1.10,2013-02-19 18:24:00,
2013-02-19 13:39:00,31.3,29.0,29.60,West,271,5.0,-999.0,90,-99.99,,,0.28,weatherlink.com 1.10,2013-02-19 18:39:00,
2013-02-19 14:09:00,30.7,27.0,29.61,SW,220,13.0,-999.0,85,-99.99,,,0.28,weatherlink.com 1.10,2013-02-19 19:09:00,
2013-02-19 14:24:00,30.6,26.0,29.62,SSW,192,11.0,-999.0,83,-99.99,,,0.28,weatherlink.com 1.10,2013-02-19 19:24:00,
2013-02-19 14:38:00,29.8,25.0,29.63,SW,227,5.0,-999.0,81,-99.99,,,0.28,weatherlink.com 1.10,2013-02-19 19:38:00,
2013-02-19 14:53:00,29.5,23.0,29.63,SW,215,18.0,-999.0,76,-99.99,,,0.28,weatherlink.com 1.10,2013-02-19 19:53:00,
2013-02-19 15:08:00,29.8,23.0,29.64,West,265,6.0,-999.0,76,-99.99,,,0.28,weatherlink.com 1.10,2013-02-19 20:08:00,
2013-02-19 15:23:00,29.5,22.0,29.64,West,263,15.0,-999.0,74,-99.99,,,0.28,weatherlink.com 1.10,2013-02-19 20:23:00,
2013-02-19 15:38:00,29.4,21.0,29.66,WSW,254,3.0,-999.0,71,-99.99,,,0.28,weatherlink.com 1.10,2013-02-19 20:38:00,
2013-02-19 15:53:00,29.3,20.0,29.66,SW,214,9.0,-999.0,69,-99.99,,,0.28,weatherlink.com 1.10,2013-02-19 20:53:00,
2013-02-19 16:08:00,29.4,21.0,29.67,SSW,210,6.0,-999.0,70,-99.99,,,0.28,weatherlink.com 1.10,2013-02-19 21:08:00,
2013-02-19 16:23:00,29.5,21.0,29.67,WSW,255,2.0,-999.0,70,-99.99,,,0.28,weatherlink.com 1.10,2013-02-19 21:23:00,
2013-02-19 16:38:00,29.7,22.0,29.67,WSW,257,10.0,-999.0,72,-99.99,,,0.28,weatherlink.com 1.10,2013-02-19 21:38:00,
2013-02-19 16:53:00,29.7,22.0,29.68,WSW,243,11.0,-999.0,72,-99.99,,,0.28,weatherlink.com 1.10,2013-02-19 21:53:00,
2013-02-19 17:09:00,29.0,21.0,29.68,West,278,11.0,-999.0,73,-99.99,,,0.28,weatherlink.com 1.10,2013-02-19 22:09:00,
2013-02-19 17:23:00,28.5,22.0,29.68,WSW,248,6.0,-999.0,75,-99.99,,,0.28,weatherlink.com 1.10,2013-02-19 22:23:00,
2013-02-19 17:38:00,28.2,22.0,29.69,WSW,256,1.0,-999.0,77,-99.99,,,0.28,weatherlink.com 1.10,2013-02-19 22:38:00,
2013-02-19 17:54:00,27.6,22.0,29.70,NW,320,0.0,-999.0,78,-99.99,,,0.28,weatherlink.com 1.10,2013-02-19 22:54:00,
2013-02-19 18:08:00,27.5,22.0,29.70,SW,234,6.0,-999.0,79,-99.99,,,0.28,weatherlink.com 1.10,2013-02-19 23:08:00,
2013-02-19 18:24:00,27.5,22.0,29.71,West,281,3.0,-999.0,78,-99.99,,,0.28,weatherlink.com 1.10,2013-02-19 23:24:00,
2013-02-19 18:38:00,27.8,20.0,29.71,NW,324,7.0,-999.0,72,-99.99,,,0.28,weatherlink.com 1.10,2013-02-19 23:38:00,
2013-02-19 18:53:00,27.6,20.0,29.72,WNW,283,8.0,-999.0,72,-99.99,,,0.28,weatherlink.com 1.10,2013-02-19 23:53:00,
2013-02-19 19:09:00,27.0,20.0,29.73,SSW,201,3.0,-999.0,75,-99.99,,,0.28,weatherlink.com 1.10,2013-02-20 00:09:00,
2013-02-19 19:24:00,26.6,20.0,29.74,NW,313,9.0,-999.0,76,-99.99,,,0.28,weatherlink.com 1.10,2013-02-20 00:24:00,
2013-02-19 19:39:00,26.4,19.0,29.74,WNW,298,5.0,-999.0,74,-99.99,,,0.28,weatherlink.com 1.10,2013-02-20 00:39:00,
2013-02-19 19:54:00,25.8,17.0,29.74,WSW,248,13.0,-999.0,70,-99.99,,,0.28,weatherlink.com 1.10,2013-02-20 00:54:00,
2013-02-19 20:09:00,26.0,17.0,29.75,WNW,294,10.0,-999.0,69,-99.99,,,0.28,weatherlink.com 1.10,2013-02-20 01:09:00,
2013-02-19 20:24:00,25.7,17.0,29.75,WSW,240,7.0,-999.0,70,-99.99,,,0.28,weatherlink.com 1.10,2013-02-20 01:24:00,
2013-02-19 20:38:00,25.4,17.0,29.76,SSW,209,7.0,-999.0,70,-99.99,,,0.28,weatherlink.com 1.10,2013-02-20 01:38:00,
2013-02-19 20:54:00,25.3,16.0,29.77,WSW,243,6.0,-999.0,69,-99.99,,,0.28,weatherlink.com 1.10,2013-02-20 01:54:00,
2013-02-19 21:09:00,25.3,17.0,29.77,WSW,253,2.0,-999.0,70,-99.99,,,0.28,weatherlink.com 1.10,2013-02-20 02:09:00,
2013-02-19 21:24:00,25.0,17.0,29.77,NW,311,2.0,-999.0,71,-99.99,,,0.28,weatherlink.com 1.10,2013-02-20 02:24:00,
2013-02-19 21:39:00,24.8,17.0,29.77,WSW,246,14.0,-999.0,71,-99.99,,,0.28,weatherlink.com 1.10,2013-02-20 02:39:00,
2013-02-19 21:54:00,25.0,17.0,29.77,WNW,290,7.0,-999.0,70,-99.99,,,0.28,weatherlink.com 1.10,2013-02-20 02:54:00,
2013-02-19 22:09:00,24.8,17.0,29.77,West,259,8.0,-999.0,71,-99.99,,,0.28,weatherlink.com 1.10,2013-02-20 03:09:00,
2013-02-19 22:24:00,25.1,16.0,29.77,SW,227,4.0,-999.0,69,-99.99,,,0.28,weatherlink.com 1.10,2013-02-20 03:24:00,
2013-02-19 22:39:00,25.0,17.0,29.77,WSW,252,1.0,-999.0,72,-99.99,,,0.28,weatherlink.com 1.10,2013-02-20 03:39:00,
2013-02-19 22:54:00,24.2,18.0,29.78,West,269,1.0,-999.0,77,-99.99,,,0.28,weatherlink.com 1.10,2013-02-20 03:54:00,
2013-02-19 23:08:00,23.9,18.0,29.78,WSW,238,2.0,-999.0,78,-99.99,,,0.28,weatherlink.com 1.10,2013-02-20 04:08:00,
2013-02-19 23:23:00,23.5,18.0,29.78,WSW,244,4.0,-999.0,79,-99.99,,,0.28,weatherlink.com 1.10,2013-02-20 04:23:00,
2013-02-19 23:38:00,23.0,18.0,29.78,West,259,0.0,-999.0,81,-99.99,,,0.28,weatherlink.com 1.10,2013-02-20 04:38:00,
2013-02-19 23:53:00,22.9,18.0,29.79,NW,304,7.0,-999.0,81,-99.99,,,0.28,weatherlink.com 1.10,2013-02-20 04:53:00,